createdAt,value
2023-01-04T00:01:22.794Z,98932.69
2023-01-04T00:03:51.501Z,98921.84
2023-01-04T00:06:19.539Z,98922.97
2023-01-04T00:08:47.422Z,98917.50
2023-01-04T00:11:20.998Z,98906.09
2023-01-04T00:13:50.674Z,98913.69
2023-01-04T00:16:23.854Z,98911.69
2023-01-04T00:18:52.492Z,98909.91
2023-01-04T00:21:25.939Z,98909.22
2023-01-04T00:23:55.962Z,98909.59
2023-01-04T00:26:26.630Z,98903.19
2023-01-04T00:29:04.233Z,98893.25
2023-01-04T00:31:32.390Z,98896.88
2023-01-04T00:34:02.149Z,98893.03
2023-01-04T00:36:30.211Z,98900.94
2023-01-04T00:39:09.075Z,98893.88
2023-01-04T00:42:00.143Z,98894.34
2023-01-04T00:44:29.334Z,98895.03
2023-01-04T00:46:57.326Z,98890.28
2023-01-04T00:49:25.723Z,98884.94
2023-01-04T00:51:53.363Z,98884.63
2023-01-04T00:54:22.209Z,98892.03
2023-01-04T00:56:50.195Z,98883.94
2023-01-04T00:59:20.185Z,98876.22
2023-01-04T01:01:48.831Z,98878.69
2023-01-04T01:04:19.618Z,98873.72
2023-01-04T01:06:48.079Z,98872.25
2023-01-04T01:09:16.288Z,98872.06
2023-01-04T01:11:44.227Z,98875.41
2023-01-04T01:14:17.735Z,98873.56
2023-01-04T01:16:55.340Z,98875.53
2023-01-04T01:19:26.831Z,98855.13
2023-01-04T01:21:54.672Z,98855.44
2023-01-04T01:24:22.452Z,98854.63
2023-01-04T01:26:50.065Z,98852.81
2023-01-04T01:29:17.646Z,98837.00
2023-01-04T01:31:45.265Z,98842.78
2023-01-04T01:34:12.907Z,98850.34
2023-01-04T01:36:40.519Z,98845.56
2023-01-04T01:39:08.318Z,98849.69
2023-01-04T01:41:36.367Z,98844.06
2023-01-04T01:44:26.830Z,98843.03
2023-01-04T01:46:55.520Z,98842.22
2023-01-04T01:49:32.965Z,98840.88
2023-01-04T01:52:05.222Z,98828.69
2023-01-04T01:54:43.926Z,98827.84
2023-01-04T01:57:18.404Z,98831.78
2023-01-04T01:59:50.549Z,98821.56
2023-01-04T02:02:18.451Z,98818.09
2023-01-04T02:04:49.607Z,98804.44
2023-01-04T02:07:21.569Z,98807.75
2023-01-04T02:09:51.483Z,98806.13
2023-01-04T02:12:19.150Z,98803.31
2023-01-04T02:14:49.048Z,98806.44
2023-01-04T02:17:47.104Z,98808.06
2023-01-04T02:20:37.805Z,98806.06
2023-01-04T02:23:26.478Z,98806.69
2023-01-04T02:26:38.654Z,98810.16
2023-01-04T02:29:15.315Z,98798.91
2023-01-04T02:32:01.730Z,98798.22
2023-01-04T02:34:44.381Z,98791.75
2023-01-04T02:37:49.171Z,98788.16
2023-01-04T02:40:31.719Z,98781.09
2023-01-04T02:43:40.777Z,98764.28
2023-01-04T02:46:16.031Z,98757.38
2023-01-04T02:49:02.132Z,98759.03
2023-01-04T02:51:33.485Z,98752.13
2023-01-04T02:54:10.876Z,98746.34
2023-01-04T02:57:16.957Z,98741.72
2023-01-04T03:00:11.671Z,98737.00
2023-01-04T03:03:36.231Z,98734.56
2023-01-04T03:06:15.489Z,98725.16
2023-01-04T03:08:57.717Z,98726.97
2023-01-04T03:11:57.075Z,98723.34
2023-01-04T03:14:33.704Z,98717.75
2023-01-04T03:17:07.201Z,98709.84
2023-01-04T03:19:52.318Z,98704.09
2023-01-04T03:23:03.501Z,98695.38
2023-01-04T03:25:54.430Z,98692.88
2023-01-04T03:28:44.274Z,98691.91
2023-01-04T03:31:37.877Z,98687.28
2023-01-04T03:34:24.546Z,98686.63
2023-01-04T03:37:00.758Z,98679.19
2023-01-04T03:40:12.899Z,98671.16
2023-01-04T03:43:31.102Z,98666.53
2023-01-04T03:46:38.424Z,98663.94
2023-01-04T03:49:16.483Z,98658.03
2023-01-04T03:51:46.526Z,98656.22
2023-01-04T03:54:31.912Z,98649.00
2023-01-04T03:57:00.420Z,98636.97
2023-01-04T03:59:27.935Z,98644.84
2023-01-04T04:01:55.821Z,98640.59
2023-01-04T04:04:41.845Z,98643.22
2023-01-04T04:07:27.900Z,98636.78
2023-01-04T04:09:55.433Z,98633.66
2023-01-04T04:12:22.950Z,98619.31
2023-01-04T04:14:50.450Z,98613.03
2023-01-04T04:17:17.974Z,98618.13
2023-01-04T04:19:45.507Z,98600.84
2023-01-04T04:22:12.962Z,98601.97
2023-01-04T04:24:40.458Z,98595.84
2023-01-04T04:27:07.988Z,98600.47
2023-01-04T04:29:35.534Z,98599.94
2023-01-04T04:32:03.171Z,98598.28
2023-01-04T04:34:30.794Z,98583.50
2023-01-04T04:36:58.291Z,98582.19
2023-01-04T04:39:26.002Z,98575.94
2023-01-04T04:41:53.460Z,98560.97
2023-01-04T04:44:21.409Z,98567.03
2023-01-04T04:46:49.798Z,98558.66
2023-01-04T04:49:18.163Z,98562.13
2023-01-04T04:51:46.619Z,98557.22
2023-01-04T04:54:18.710Z,98548.84
2023-01-04T04:56:47.200Z,98552.13
2023-01-04T04:59:15.007Z,98549.00
2023-01-04T05:01:42.670Z,98542.41
2023-01-04T05:04:14.352Z,98539.59
2023-01-04T05:06:42.800Z,98538.63
2023-01-04T05:09:11.681Z,98531.59
2023-01-04T05:11:58.550Z,98522.22
2023-01-04T05:14:26.562Z,98520.88
2023-01-04T05:16:54.124Z,98520.41
2023-01-04T05:19:22.273Z,98526.31
2023-01-04T05:21:49.866Z,98519.03
2023-01-04T05:24:17.442Z,98514.22
2023-01-04T05:26:44.917Z,98509.56
2023-01-04T05:29:32.461Z,98507.53
2023-01-04T05:33:08.522Z,98506.53
2023-01-04T05:35:36.466Z,98498.94
2023-01-04T05:38:03.947Z,98498.31
2023-01-04T05:40:31.764Z,98496.31
2023-01-04T05:42:59.295Z,98491.19
2023-01-04T05:45:27.223Z,98484.56
2023-01-04T05:47:55.189Z,98481.91
2023-01-04T05:50:24.058Z,98476.28
2023-01-04T05:52:51.953Z,98461.94
2023-01-04T05:55:20.036Z,98461.94
2023-01-04T05:57:48.079Z,98459.41
2023-01-04T06:00:15.807Z,98453.31
2023-01-04T06:02:44.502Z,98450.50
2023-01-04T06:05:12.947Z,98450.50
2023-01-04T06:07:41.269Z,98449.88
2023-01-04T06:10:10.905Z,98437.13
2023-01-04T06:12:39.215Z,98433.19
2023-01-04T06:15:08.196Z,98436.16
2023-01-04T06:17:36.498Z,98423.50
2023-01-04T06:20:05.605Z,98419.59
2023-01-04T06:22:33.679Z,98420.91
2023-01-04T06:25:01.291Z,98411.34
2023-01-04T06:27:28.730Z,98397.16
2023-01-04T06:29:56.346Z,98397.84
2023-01-04T06:32:23.739Z,98396.56
2023-01-04T06:34:51.384Z,98389.81
2023-01-04T06:37:18.842Z,98374.44
2023-01-04T06:39:46.428Z,98360.66
2023-01-04T06:42:32.586Z,98367.25
2023-01-04T06:45:01.405Z,98357.03
2023-01-04T06:47:28.878Z,98358.72
2023-01-04T06:49:56.349Z,98363.28
2023-01-04T06:52:23.944Z,98358.47
2023-01-04T06:54:51.567Z,98352.50
2023-01-04T06:57:19.084Z,98345.59
2023-01-04T06:59:46.620Z,98338.75
2023-01-04T07:02:15.469Z,98340.47
2023-01-04T07:04:43.852Z,98339.41
2023-01-04T07:07:11.522Z,98334.72
2023-01-04T07:09:39.220Z,98330.66
2023-01-04T07:12:07.084Z,98335.75
2023-01-04T07:14:34.727Z,98332.69
2023-01-04T07:17:02.270Z,98323.66
2023-01-04T07:19:29.688Z,98316.91
2023-01-04T07:21:58.907Z,98326.31
2023-01-04T07:24:30.357Z,98317.00
2023-01-04T07:27:00.994Z,98308.25
2023-01-04T07:29:28.602Z,98295.03
2023-01-04T07:31:57.020Z,98299.66
2023-01-04T07:34:25.807Z,98315.09
2023-01-04T07:36:53.557Z,98310.34
2023-01-04T07:39:22.250Z,98319.47
2023-01-04T07:41:50.783Z,98328.75
2023-01-04T07:44:22.010Z,98321.81
2023-01-04T07:46:49.591Z,98320.00
2023-01-04T07:49:18.748Z,98319.25
2023-01-04T07:51:50.158Z,98320.28
2023-01-04T07:54:18.738Z,98317.47
2023-01-04T07:56:47.728Z,98315.06
2023-01-04T07:59:16.771Z,98301.94
2023-01-04T08:01:44.924Z,98312.81
2023-01-04T08:04:13.464Z,98303.88
2023-01-04T08:06:42.320Z,98305.41
2023-01-04T08:09:11.697Z,98314.19
2023-01-04T08:11:39.679Z,98311.34
2023-01-04T08:14:07.362Z,98302.41
2023-01-04T08:16:37.657Z,98300.13
2023-01-04T08:19:08.223Z,98306.41
2023-01-04T08:21:36.795Z,98303.31
2023-01-04T08:24:05.079Z,98288.94
2023-01-04T08:26:33.309Z,98285.28
2023-01-04T08:29:00.819Z,98286.44
2023-01-04T08:31:30.705Z,98273.06
2023-01-04T08:34:01.104Z,98282.91
2023-01-04T08:36:34.455Z,98270.66
2023-01-04T08:39:05.197Z,98273.66
2023-01-04T08:44:38.385Z,98243.84
2023-01-04T08:47:06.173Z,98247.69
2023-01-04T08:49:33.947Z,98240.31
2023-01-04T08:52:01.459Z,98238.31
2023-01-04T08:54:28.948Z,98227.16
2023-01-04T08:56:56.400Z,98210.47
2023-01-04T08:59:23.891Z,98201.47
2023-01-04T09:01:51.496Z,98201.47
2023-01-04T09:04:19.327Z,98189.88
2023-01-04T09:06:46.914Z,98191.84
2023-01-04T09:09:15.605Z,98180.22
2023-01-04T09:11:43.043Z,98184.53
2023-01-04T09:14:10.685Z,98173.19
2023-01-04T09:16:38.815Z,98178.00
2023-01-04T09:19:07.089Z,98169.72
2023-01-04T09:21:34.893Z,98176.53
2023-01-04T09:24:02.646Z,98171.50
2023-01-04T09:26:30.371Z,98168.72
2023-01-04T09:28:58.158Z,98166.34
2023-01-04T09:31:28.140Z,98155.59
2023-01-04T09:34:15.372Z,98153.81
2023-01-04T09:36:45.371Z,98150.38
2023-01-04T09:39:20.915Z,98144.06
2023-01-04T09:41:57.787Z,98136.31
2023-01-04T09:48:04.108Z,98134.69
2023-01-04T09:50:36.942Z,98122.13
2023-01-04T09:53:19.586Z,98113.75
2023-01-04T09:55:50.976Z,98127.63
2023-01-04T09:58:24.893Z,98124.34
2023-01-04T10:00:59.044Z,98109.88
2023-01-04T10:04:04.188Z,98094.44
2023-01-04T10:06:33.855Z,98074.03
2023-01-04T10:09:04.765Z,98066.53
2023-01-04T10:11:44.209Z,98060.63
2023-01-04T10:14:29.974Z,98054.69
2023-01-04T10:18:13.533Z,98048.56
2023-01-04T10:24:06.409Z,98046.13
2023-01-04T10:26:40.207Z,98055.88
2023-01-04T10:29:27.824Z,98051.41
2023-01-04T10:32:03.516Z,98037.31
2023-01-04T10:34:38.630Z,98027.13
2023-01-04T10:37:21.104Z,98007.53
2023-01-04T10:39:55.343Z,98021.00
2023-01-04T10:42:42.274Z,98036.88
2023-01-04T10:45:32.056Z,98033.56
2023-01-04T10:48:20.460Z,98030.31
2023-01-04T10:50:55.563Z,98044.34
2023-01-04T10:53:44.699Z,98037.41
2023-01-04T10:56:27.457Z,98037.56
2023-01-04T10:59:21.818Z,98030.25
2023-01-04T11:02:12.032Z,98034.34
2023-01-04T11:04:57.702Z,98032.09
2023-01-04T11:07:34.321Z,98020.28
2023-01-04T11:10:13.048Z,97992.78
2023-01-04T11:12:40.867Z,97992.56
2023-01-04T11:15:09.240Z,97970.81
2023-01-04T11:17:37.196Z,97977.31
2023-01-04T11:20:05.603Z,97976.91
2023-01-04T11:22:36.251Z,97986.47
2023-01-04T11:28:08.199Z,97997.06
2023-01-04T11:31:04.844Z,97983.84
2023-01-04T11:34:16.974Z,97982.22
2023-01-04T11:36:46.708Z,97986.09
2023-01-04T11:39:26.248Z,97977.75
2023-01-04T11:42:03.007Z,97972.03
2023-01-04T11:44:33.513Z,97961.50
2023-01-04T11:47:16.218Z,97959.66
2023-01-04T11:49:44.078Z,97950.72
2023-01-04T11:52:33.323Z,97949.69
2023-01-04T11:55:27.137Z,97938.47
2023-01-04T11:58:15.734Z,97924.41
2023-01-04T12:00:56.721Z,97921.97
2023-01-04T12:03:29.234Z,97922.78
2023-01-04T12:05:58.534Z,97937.06
2023-01-04T12:08:33.109Z,97919.09
2023-01-04T12:11:02.840Z,97905.84
2023-01-04T12:13:32.571Z,97898.13
2023-01-04T12:16:12.676Z,97877.94
2023-01-04T12:18:43.315Z,97888.31
2023-01-04T12:21:24.356Z,97885.06
2023-01-04T12:23:53.379Z,97874.03
2023-01-04T12:26:23.434Z,97873.41
2023-01-04T12:29:12.655Z,97874.03
2023-01-04T12:31:40.715Z,97865.66
2023-01-04T12:34:23.588Z,97883.19
2023-01-04T12:36:51.069Z,97873.44
2023-01-04T12:39:22.793Z,97864.41
2023-01-04T12:42:03.752Z,97852.97
2023-01-04T12:44:37.878Z,97846.41
2023-01-04T12:47:39.159Z,97858.84
2023-01-04T12:50:12.700Z,97853.75
2023-01-04T12:53:11.235Z,97863.34
2023-01-04T12:55:41.953Z,97839.00
2023-01-04T12:58:42.347Z,97840.28
2023-01-04T13:01:29.445Z,97815.97
2023-01-04T13:04:05.760Z,97826.34
2023-01-04T13:06:43.038Z,97812.06
2023-01-04T13:09:24.050Z,97799.41
2023-01-04T13:12:16.071Z,97810.81
2023-01-04T13:14:54.138Z,97793.84
2023-01-04T13:17:24.165Z,97787.13
2023-01-04T13:19:52.028Z,97795.47
2023-01-04T13:22:28.877Z,97784.66
2023-01-04T13:24:59.418Z,97787.31
2023-01-04T13:27:27.645Z,97779.72
2023-01-04T13:29:55.423Z,97792.97
2023-01-04T13:32:42.360Z,97798.03
2023-01-04T13:35:21.677Z,97782.72
2023-01-04T13:37:51.160Z,97790.84
2023-01-04T13:40:32.582Z,97800.41
2023-01-04T13:43:15.264Z,97781.41
2023-01-04T13:45:51.506Z,97772.38
2023-01-04T13:48:25.189Z,97766.81
2023-01-04T13:51:02.319Z,97758.56
2023-01-04T13:53:31.379Z,97751.56
2023-01-04T13:56:01.320Z,97738.09
2023-01-04T13:58:34.197Z,97736.22
2023-01-04T14:01:14.276Z,97721.69
2023-01-04T14:03:49.363Z,97737.22
2023-01-04T14:06:24.256Z,97724.94
2023-01-04T14:08:57.457Z,97735.13
2023-01-04T14:12:07.345Z,97719.78
2023-01-04T14:14:46.996Z,97715.88
2023-01-04T14:17:19.847Z,97710.63
2023-01-04T14:19:56.292Z,97700.38
2023-01-04T14:22:23.811Z,97675.38
2023-01-04T14:25:10.192Z,97700.94
2023-01-04T14:27:40.732Z,97698.28
2023-01-04T14:30:20.646Z,97690.88
2023-01-04T14:33:00.830Z,97689.03
2023-01-04T14:35:30.184Z,97691.25
2023-01-04T14:38:06.707Z,97699.41
2023-01-04T14:40:37.182Z,97697.16
2023-01-04T14:43:37.540Z,97706.19
2023-01-04T14:46:05.282Z,97686.91
2023-01-04T14:48:32.740Z,97689.97
2023-01-04T14:51:01.219Z,97694.59
2023-01-04T14:53:28.787Z,97679.09
2023-01-04T14:55:56.916Z,97705.50
2023-01-04T14:58:24.379Z,97683.00
2023-01-04T15:00:51.931Z,97688.91
2023-01-04T15:03:19.466Z,97683.81
2023-01-04T15:05:47.711Z,97680.63
2023-01-04T15:08:15.093Z,97667.56
2023-01-04T15:10:42.635Z,97661.59
2023-01-04T15:13:10.049Z,97672.97
2023-01-04T15:15:37.812Z,97682.25
2023-01-04T15:18:05.294Z,97677.81
2023-01-04T15:20:32.835Z,97684.44
2023-01-04T15:23:00.298Z,97675.91
2023-01-04T15:25:29.777Z,97679.25
2023-01-04T15:27:57.447Z,97677.38
2023-01-04T15:30:24.986Z,97666.41
2023-01-04T15:32:52.939Z,97672.75
2023-01-04T15:35:20.509Z,97676.19
2023-01-04T15:37:48.059Z,97682.09
2023-01-04T15:40:17.477Z,97681.09
2023-01-04T15:43:03.211Z,97675.78
2023-01-04T15:45:36.005Z,97672.47
2023-01-04T15:48:05.407Z,97676.97
2023-01-04T15:50:38.868Z,97661.41
2023-01-04T15:53:10.189Z,97671.16
2023-01-04T15:55:38.012Z,97664.59
2023-01-04T15:58:06.059Z,97663.59
2023-01-04T16:00:33.661Z,97651.16
2023-01-04T16:03:01.152Z,97638.13
2023-01-04T16:05:28.767Z,97655.91
2023-01-04T16:07:56.564Z,97655.03
2023-01-04T16:10:24.845Z,97655.03
2023-01-04T16:12:56.681Z,97659.66
2023-01-04T16:15:25.006Z,97661.75
2023-01-04T16:17:52.570Z,97648.25
2023-01-04T16:20:20.514Z,97631.75
2023-01-04T16:22:48.042Z,97633.13
2023-01-04T16:25:15.731Z,97635.50
2023-01-04T16:27:44.154Z,97625.84
2023-01-04T16:30:13.816Z,97613.38
2023-01-04T16:32:43.686Z,97606.22
2023-01-04T16:35:12.090Z,97600.47
2023-01-04T16:37:39.715Z,97603.00
2023-01-04T16:40:08.976Z,97598.25
2023-01-04T16:42:38.077Z,97601.94
2023-01-04T16:45:06.789Z,97590.72
2023-01-04T16:47:42.522Z,97596.47
2023-01-04T16:50:11.265Z,97602.38
2023-01-04T16:52:39.530Z,97581.16
2023-01-04T16:55:07.854Z,97576.13
2023-01-04T16:57:35.418Z,97572.81
2023-01-04T17:00:03.957Z,97576.81
2023-01-04T17:02:31.612Z,97551.66
2023-01-04T17:05:01.112Z,97550.16
2023-01-04T17:07:32.745Z,97524.19
2023-01-04T17:10:01.381Z,97533.16
2023-01-04T17:18:05.666Z,97525.38
2023-01-04T17:20:33.185Z,97526.09
2023-01-04T17:23:00.799Z,97529.97
2023-01-04T17:25:28.305Z,97512.16
2023-01-04T17:27:55.762Z,97525.22
2023-01-04T17:30:23.484Z,97529.81
2023-01-04T17:32:51.273Z,97528.19
2023-01-04T17:35:18.682Z,97528.03
2023-01-04T17:37:46.153Z,97531.19
2023-01-04T17:40:19.053Z,97519.53
2023-01-04T17:42:50.079Z,97521.09
2023-01-04T17:45:17.624Z,97545.75
2023-01-04T17:47:45.088Z,97551.28
2023-01-04T17:50:12.794Z,97558.00
2023-01-04T17:52:40.367Z,97557.09
2023-01-04T17:55:08.313Z,97565.22
2023-01-04T17:57:36.073Z,97563.38
2023-01-04T18:00:04.204Z,97567.09
2023-01-04T18:02:33.070Z,97566.03
2023-01-04T18:05:00.956Z,97555.56
2023-01-04T18:07:28.936Z,97547.94
2023-01-04T18:09:56.534Z,97536.63
2023-01-04T18:12:24.049Z,97542.84
2023-01-04T18:14:51.552Z,97536.41
2023-01-04T18:17:19.212Z,97530.03
2023-01-04T18:19:46.940Z,97535.84
2023-01-04T18:22:15.108Z,97537.94
2023-01-04T18:24:42.629Z,97533.09
2023-01-04T18:27:27.671Z,97535.16
2023-01-04T18:29:56.604Z,97529.81
2023-01-04T18:32:25.639Z,97527.75
2023-01-04T18:34:53.312Z,97520.25
2023-01-04T18:37:21.284Z,97515.06
2023-01-04T18:39:48.858Z,97522.84
2023-01-04T18:42:17.181Z,97509.75
2023-01-04T18:44:49.125Z,97523.19
2023-01-04T18:47:20.202Z,97523.31
2023-01-04T18:49:51.102Z,97507.25
2023-01-04T18:52:20.052Z,97515.72
2023-01-04T18:54:48.791Z,97517.81
2023-01-04T18:57:16.720Z,97512.63
2023-01-04T18:59:44.209Z,97491.44
2023-01-04T19:02:17.794Z,97488.31
2023-01-04T19:04:45.948Z,97497.94
2023-01-04T19:07:13.541Z,97487.53
2023-01-04T19:09:42.707Z,97497.25
2023-01-04T19:12:10.932Z,97489.84
2023-01-04T19:14:38.522Z,97488.34
2023-01-04T19:17:05.999Z,97505.00
2023-01-04T19:19:34.211Z,97484.75
2023-01-04T19:22:01.749Z,97475.69
2023-01-04T19:24:29.248Z,97472.22
2023-01-04T19:27:02.836Z,97463.78
2023-01-04T19:29:31.409Z,97453.34
2023-01-04T19:31:59.025Z,97467.38
2023-01-04T19:34:26.516Z,97433.22
2023-01-04T19:36:54.324Z,97456.69
2023-01-04T19:39:21.829Z,97443.84
2023-01-04T19:41:49.250Z,97422.09
2023-01-04T19:44:17.106Z,97428.69
2023-01-04T19:46:44.594Z,97423.25
2023-01-04T19:49:15.265Z,97407.59
2023-01-04T19:51:45.420Z,97418.97
2023-01-04T19:54:14.091Z,97413.41
2023-01-04T19:56:41.911Z,97400.91
2023-01-04T19:59:09.870Z,97399.28
2023-01-04T20:01:37.542Z,97395.47
2023-01-04T20:04:05.326Z,97381.34
2023-01-04T20:06:33.110Z,97384.22
2023-01-04T20:09:00.722Z,97392.53
2023-01-04T20:11:28.280Z,97425.22
2023-01-04T20:13:55.793Z,97403.47
2023-01-04T20:16:23.323Z,97420.84
2023-01-04T20:18:54.707Z,97407.88
2023-01-04T20:21:22.303Z,97389.34
2023-01-04T20:23:50.044Z,97391.88
2023-01-04T20:26:18.699Z,97372.16
2023-01-04T20:28:46.315Z,97384.91
2023-01-04T20:31:16.305Z,97408.16
2023-01-04T20:33:44.243Z,97404.59
2023-01-04T20:36:18.506Z,97419.19
2023-01-04T20:38:47.012Z,97414.91
2023-01-04T20:41:20.428Z,97431.56
2023-01-04T20:43:48.383Z,97417.91
2023-01-04T20:46:18.662Z,97415.50
2023-01-04T20:48:47.405Z,97423.16
2023-01-04T20:51:17.910Z,97439.13
2023-01-04T20:53:46.116Z,97414.59
2023-01-04T20:56:19.500Z,97430.78
2023-01-04T20:58:48.903Z,97417.47
2023-01-04T21:01:17.788Z,97411.25
2023-01-04T21:03:45.972Z,97433.34
2023-01-04T21:06:17.173Z,97407.31
2023-01-04T21:08:45.472Z,97399.81
2023-01-04T21:11:14.253Z,97376.53
2023-01-04T21:13:42.514Z,97366.34
2023-01-04T21:16:11.505Z,97364.63
2023-01-04T21:18:39.111Z,97376.41
2023-01-04T21:21:08.203Z,97358.94
2023-01-04T21:23:36.673Z,97384.84
2023-01-04T21:26:22.292Z,97370.06
2023-01-04T21:28:49.876Z,97365.53
2023-01-04T21:31:19.873Z,97358.03
2023-01-04T21:33:48.307Z,97356.16
2023-01-04T21:36:19.471Z,97353.63
2023-01-04T21:38:51.244Z,97343.19
2023-01-04T21:41:18.972Z,97354.78
2023-01-04T21:43:46.497Z,97348.19
2023-01-04T21:46:15.431Z,97350.25
2023-01-04T21:48:44.524Z,97344.47
2023-01-04T21:51:13.420Z,97342.66
2023-01-04T21:53:41.688Z,97345.06
2023-01-04T21:56:14.912Z,97314.72
2023-01-04T21:58:42.810Z,97308.13
2023-01-04T22:01:13.391Z,97332.09
2023-01-04T22:03:41.015Z,97302.34
2023-01-04T22:06:09.114Z,97304.06
2023-01-04T22:08:37.126Z,97317.47
2023-01-04T22:11:05.113Z,97312.16
2023-01-04T22:13:32.603Z,97295.28
2023-01-04T22:16:00.162Z,97278.81
2023-01-04T22:18:27.778Z,97295.84
2023-01-04T22:21:06.685Z,97279.78
2023-01-04T22:23:34.340Z,97300.91
2023-01-04T22:26:02.408Z,97291.63
2023-01-04T22:28:36.354Z,97284.06
2023-01-04T22:31:09.444Z,97285.47
2023-01-04T22:33:38.151Z,97290.84
2023-01-04T22:36:22.391Z,97285.63
2023-01-04T22:38:55.469Z,97264.69
2023-01-04T22:41:25.027Z,97286.09
2023-01-04T22:44:00.654Z,97270.94
2023-01-04T22:46:29.926Z,97256.22
2023-01-04T22:48:58.853Z,97252.44
2023-01-04T22:51:27.802Z,97245.50
2023-01-04T22:53:57.411Z,97263.91
2023-01-04T22:56:25.373Z,97253.09
2023-01-04T22:58:55.568Z,97271.50
2023-01-04T23:01:29.423Z,97263.09
2023-01-04T23:03:58.466Z,97267.50
2023-01-04T23:06:27.185Z,97250.97
2023-01-04T23:08:56.850Z,97243.44
2023-01-04T23:11:25.028Z,97257.00
2023-01-04T23:13:52.982Z,97257.97
2023-01-04T23:16:24.803Z,97279.38
2023-01-04T23:18:55.584Z,97262.56
2023-01-04T23:21:23.267Z,97263.88
2023-01-04T23:23:51.543Z,97279.41
2023-01-04T23:26:24.238Z,97278.03
2023-01-04T23:28:52.238Z,97281.63
2023-01-04T23:31:22.641Z,97277.84
2023-01-04T23:33:56.672Z,97273.31
2023-01-04T23:36:25.353Z,97258.84
2023-01-04T23:38:55.728Z,97276.91
2023-01-04T23:41:44.883Z,97274.25
2023-01-04T23:44:15.425Z,97276.00
2023-01-04T23:46:43.585Z,97263.38
2023-01-04T23:49:12.562Z,97266.53
2023-01-04T23:51:40.409Z,97248.63
2023-01-04T23:54:09.039Z,97251.13
2023-01-04T23:56:37.316Z,97246.41
2023-01-04T23:59:05.306Z,97249.63
